Date,TemperatureHighF,TemperatureAvgF,TemperatureLowF,DewpointHighF,DewpointAvgF,DewpointLowF,HumidityHigh,HumidityAvg,HumidityLow,PressureMaxIn,PressureMinIn,WindSpeedMaxMPH,WindSpeedAvgMPH,GustSpeedMaxMPH,PrecipitationSumIn
2013-3-1,64,47,29,12,8,1,34,21,11,30.38,30.26,11,2,11,0.00
2013-3-2,70,52,32,18,14,8,39,23,12,30.42,30.22,9,1,10,0.00
2013-3-3,82,60,36,17,8,-29,42,18,1,30.23,29.96,22,5,26,0.00
2013-3-4,79,63,46,29,17,-6,27,18,4,30.12,29.84,33,8,40,0.00
2013-3-5,65,54,42,29,25,19,50,33,22,30.32,30.12,31,10,31,0.00
2013-3-6,77,62,52,28,25,23,34,25,15,30.22,30.02,26,7,33,0.00
2013-3-7,78,65,49,29,23,9,39,22,8,30.10,29.96,17,4,20,0.00
2013-3-8,71,61,53,51,36,22,71,40,23,30.04,29.89,24,6,27,0.03
2013-3-9,59,49,40,38,29,20,72,48,23,30.05,29.91,29,11,34,0.00
2013-3-10,58,46,33,31,24,19,78,47,25,30.20,30.05,16,2,21,0.00
2013-3-11,68,51,32,26,19,14,54,31,15,30.24,30.07,16,3,18,0.00
2013-3-12,74,56,36,25,17,13,40,23,10,30.26,30.11,16,3,20,0.00
2013-3-13,76,61,42,26,20,10,46,23,8,30.35,30.19,17,5,19,0.00
2013-3-14,81,61,41,19,12,3,31,17,5,30.33,30.17,7,1,8,0.00
2013-3-15,86,64,43,17,8,-1,27,13,4,30.22,30.00,11,2,16,0.00
2013-3-16,86,68,49,18,9,-13,23,12,2,30.03,29.84,23,5,26,0.00
2013-3-17,80,68,49,19,12,7,22,12,7,29.98,29.84,38,10,38,0.00
2013-3-18,78,65,50,23,15,4,29,15,6,30.10,29.96,21,7,24,0.00
2013-3-19,78,64,48,23,16,9,26,16,9,30.13,29.99,24,5,26,0.00
2013-3-20,72,62,47,34,29,20,51,30,20,30.25,29.96,21,4,21,0.00
2013-3-21,80,65,48,31,24,10,46,24,8,29.96,29.78,29,7,33,0.00
2013-3-22,80,66,50,29,23,15,32,20,12,29.91,29.74,28,7,33,0.00
2013-3-23,75,63,50,27,13,-12,37,17,4,30.04,29.86,40,10,41,0.00
2013-3-24,64,51,37,6,-2,-15,23,12,7,30.18,29.93,19,6,22,0.00
2013-3-25,63,52,40,12,7,0,23,16,10,30.20,29.99,16,5,19,0.00
2013-3-26,72,57,45,19,16,12,29,20,11,30.25,30.04,23,9,26,0.00
2013-3-27,80,63,44,24,20,16,37,21,10,30.14,30.01,17,3,24,0.00
2013-3-28,82,68,50,27,22,17,27,18,12,30.17,30.05,18,3,21,0.00
2013-3-29,84,69,53,24,18,10,27,15,7,30.18,30.05,16,4,36,0.00
2013-3-30,84,68,50,26,17,12,24,15,7,30.17,30.02,20,4,24,0.00
2013-3-31,83,68,50,30,23,18,33,19,11,30.12,29.99,15,3,17,0.00